Terminal Aerodrome Forecast
Issued by NWS

Home | Current Version | Previous Version | Text Only | Print | Product List | Glossary On
Versions: 1 2 3 4 5 6 7 8 9 10 11 12 13 14 15
000
FTUS44 KSJT 021700
TAFJCT
TAF
KJCT 021720Z 0218/0318 16011G18KT P6SM SCT050
     FM031000 16009KT P6SM BKN025
     FM031500 17011G19KT P6SM SCT025=

USA.gov is the U.S. government's official web portal to all federal, state and local government web resources and services.